Terminal Aerodrome Forecast
Issued by NWS

Home | Current Version | Previous Version | Text Only | Print | Product List | Glossary On
Versions: 1 2 3 4 5 6 7 8 9 10 11 12 13 14 15 16 17 18 19
000
FTUS43 KAPX 291731
TAFPLN
TAF
KPLN 291731Z 2918/3018 23004KT P6SM OVC040
     FM300100 00000KT 4SM BR SCT040
     FM300500 00000KT 1/2SM FG SCT003
     FM301400 23004KT P6SM FEW020=

USA.gov is the U.S. government's official web portal to all federal, state and local government web resources and services.